createdAt,value
2022-12-14T00:00:22.856Z,-6.40
2022-12-14T00:02:51.682Z,-6.40
2022-12-14T00:05:20.919Z,-6.40
2022-12-14T00:07:49.580Z,-6.40
2022-12-14T00:10:18.491Z,-6.30
2022-12-14T00:12:48.540Z,-6.30
2022-12-14T00:15:17.303Z,-6.30
2022-12-14T00:17:46.284Z,-6.30
2022-12-14T00:20:15.090Z,-6.40
2022-12-14T00:22:43.692Z,-6.40
2022-12-14T00:25:12.438Z,-6.40
2022-12-14T00:27:44.852Z,-6.40
2022-12-14T00:30:17.110Z,-6.40
2022-12-14T00:32:46.077Z,-6.40
2022-12-14T00:35:18.287Z,-6.50
2022-12-14T00:37:49.035Z,-6.60
2022-12-14T00:40:17.866Z,-6.50
2022-12-14T00:42:46.581Z,-6.60
2022-12-14T00:45:16.904Z,-6.70
2022-12-14T00:47:45.696Z,-6.70
2022-12-14T00:50:14.368Z,-6.70
2022-12-14T00:52:43.075Z,-6.80
2022-12-14T00:55:12.667Z,-6.80
2022-12-14T00:57:41.431Z,-6.80
2022-12-14T01:00:11.252Z,-6.90
2022-12-14T01:02:42.833Z,-7.00
2022-12-14T01:05:11.943Z,-7.10
2022-12-14T01:07:48.735Z,-7.20
2022-12-14T01:10:18.173Z,-7.20
2022-12-14T01:12:46.946Z,-7.30
2022-12-14T01:15:15.526Z,-7.30
2022-12-14T01:17:45.660Z,-7.30
2022-12-14T01:20:14.487Z,-7.40
2022-12-14T01:22:43.068Z,-7.50
2022-12-14T01:25:12.005Z,-7.50
2022-12-14T01:27:40.600Z,-7.60
2022-12-14T01:30:10.053Z,-7.60
2022-12-14T01:32:38.846Z,-7.70
2022-12-14T01:35:10.333Z,-7.70
2022-12-14T01:37:38.979Z,-7.80
2022-12-14T01:40:09.472Z,-7.80
2022-12-14T01:42:38.697Z,-7.80
2022-12-14T01:45:18.133Z,-7.80
2022-12-14T01:47:51.517Z,-7.80
2022-12-14T01:50:29.736Z,-7.90
2022-12-14T01:53:01.746Z,-7.90
2022-12-14T01:55:34.301Z,-7.90
2022-12-14T01:58:08.594Z,-8.00
2022-12-14T02:00:37.886Z,-8.10
2022-12-14T02:03:10.936Z,-8.10
2022-12-14T02:05:45.256Z,-8.10
2022-12-14T02:08:15.595Z,-8.20
2022-12-14T02:10:46.070Z,-8.20
2022-12-14T02:13:21.122Z,-8.30
2022-12-14T02:15:49.859Z,-8.40
2022-12-14T02:18:22.963Z,-8.40
2022-12-14T02:21:14.937Z,-8.40
2022-12-14T02:24:16.004Z,-8.40
2022-12-14T02:27:27.830Z,-8.40
2022-12-14T02:30:07.822Z,-8.40
2022-12-14T02:33:05.526Z,-8.40
2022-12-14T02:35:43.912Z,-8.40
2022-12-14T02:38:26.443Z,-8.40
2022-12-14T02:41:03.372Z,-8.50
2022-12-14T02:43:38.304Z,-8.50
2022-12-14T02:46:18.380Z,-8.60
2022-12-14T02:48:52.723Z,-8.60
2022-12-14T02:51:30.551Z,-8.70
2022-12-14T02:54:05.413Z,-8.70
2022-12-14T02:56:39.577Z,-8.70
2022-12-14T02:59:10.436Z,-8.70
2022-12-14T03:01:42.922Z,-8.70
2022-12-14T03:04:16.423Z,-8.70
2022-12-14T03:06:58.093Z,-8.70
2022-12-14T03:09:30.009Z,-8.70
2022-12-14T03:12:02.922Z,-8.80
2022-12-14T03:14:35.883Z,-8.80
2022-12-14T03:17:14.181Z,-8.90
2022-12-14T03:19:50.689Z,-8.90
2022-12-14T03:22:25.120Z,-9.00
2022-12-14T03:24:59.977Z,-9.00
2022-12-14T03:27:32.867Z,-9.10
2022-12-14T03:30:06.328Z,-9.10
2022-12-14T03:32:41.617Z,-9.10
2022-12-14T03:35:15.616Z,-9.10
2022-12-14T03:37:53.429Z,-9.10
2022-12-14T03:40:28.317Z,-9.20
2022-12-14T03:43:06.287Z,-9.20
2022-12-14T03:45:45.064Z,-9.20
2022-12-14T03:48:27.225Z,-9.20
2022-12-14T03:51:07.292Z,-9.30
2022-12-14T03:53:42.487Z,-9.20
2022-12-14T03:56:17.472Z,-9.30
2022-12-14T03:58:57.151Z,-9.30
2022-12-14T04:01:38.408Z,-9.30
2022-12-14T04:04:14.204Z,-9.30
2022-12-14T04:06:51.335Z,-9.30
2022-12-14T04:09:32.420Z,-9.20
2022-12-14T04:12:25.081Z,-9.20
2022-12-14T04:15:15.761Z,-9.20
2022-12-14T04:18:04.608Z,-9.20
2022-12-14T04:20:41.510Z,-9.30
2022-12-14T04:23:16.504Z,-9.30
2022-12-14T04:26:05.366Z,-9.30
2022-12-14T04:28:57.343Z,-9.30
2022-12-14T04:31:30.078Z,-9.30
2022-12-14T04:34:03.336Z,-9.30
2022-12-14T04:36:39.984Z,-9.30
2022-12-14T04:39:13.796Z,-9.30
2022-12-14T04:41:46.515Z,-9.30
2022-12-14T04:44:23.354Z,-9.30
2022-12-14T04:46:54.456Z,-9.30
2022-12-14T04:49:28.430Z,-9.30
2022-12-14T04:52:05.614Z,-9.30
2022-12-14T04:54:46.416Z,-9.30
2022-12-14T04:57:20.357Z,-9.30
2022-12-14T04:59:49.639Z,-9.60
2022-12-14T05:02:24.882Z,-9.30
2022-12-14T05:05:04.008Z,-9.40
2022-12-14T05:07:48.736Z,-9.40
2022-12-14T05:10:21.667Z,-9.40
2022-12-14T05:12:59.148Z,-9.30
2022-12-14T05:15:33.373Z,-9.30
2022-12-14T05:18:04.535Z,-9.30
2022-12-14T05:20:42.028Z,-9.30
2022-12-14T05:23:12.249Z,-9.40
2022-12-14T05:25:41.081Z,-9.30
2022-12-14T05:28:11.341Z,-9.30
2022-12-14T05:30:40.264Z,-9.30
2022-12-14T05:33:11.820Z,-9.40
2022-12-14T05:35:42.679Z,-9.40
2022-12-14T05:38:13.517Z,-9.50
2022-12-14T05:40:42.293Z,-9.50
2022-12-14T05:43:14.190Z,-9.50
2022-12-14T05:45:43.131Z,-9.60
2022-12-14T05:48:11.730Z,-9.60
2022-12-14T05:50:40.428Z,-9.60
2022-12-14T05:53:09.511Z,-9.60
2022-12-14T05:55:41.571Z,-9.60
2022-12-14T05:58:10.539Z,-9.60
2022-12-14T06:00:39.189Z,-9.70
2022-12-14T06:03:08.344Z,-9.70
2022-12-14T06:05:37.250Z,-9.70
2022-12-14T06:08:06.154Z,-9.70
2022-12-14T06:10:35.207Z,-9.80
2022-12-14T06:13:05.407Z,-9.80
2022-12-14T06:15:34.308Z,-9.80
2022-12-14T06:18:03.010Z,-9.80
2022-12-14T06:20:31.620Z,-9.80
2022-12-14T06:23:00.458Z,-9.80
2022-12-14T06:25:29.196Z,-9.90
2022-12-14T06:27:57.864Z,-9.80
2022-12-14T06:30:28.794Z,-9.80
2022-12-14T06:32:59.994Z,-9.80
2022-12-14T06:35:32.650Z,-9.70
2022-12-14T06:38:01.388Z,-9.70
2022-12-14T06:40:30.427Z,-9.70
2022-12-14T06:42:59.273Z,-9.70
2022-12-14T06:45:29.999Z,-9.60
2022-12-14T06:47:59.406Z,-9.50
2022-12-14T06:50:29.222Z,-9.50
2022-12-14T06:52:58.204Z,-9.30
2022-12-14T06:55:27.650Z,-9.30
2022-12-14T06:57:57.112Z,-9.30
2022-12-14T07:00:26.922Z,-9.30
2022-12-14T07:02:59.270Z,-9.30
2022-12-14T07:05:28.078Z,-9.30
2022-12-14T07:07:57.047Z,-9.30
2022-12-14T07:10:25.731Z,-9.20
2022-12-14T07:12:54.431Z,-9.20
2022-12-14T07:15:23.509Z,-9.20
2022-12-14T07:17:52.094Z,-9.30
2022-12-14T07:20:22.434Z,-9.30
2022-12-14T07:22:50.996Z,-9.30
2022-12-14T07:25:19.959Z,-9.30
2022-12-14T07:27:48.885Z,-9.30
2022-12-14T07:30:17.589Z,-9.20
2022-12-14T07:32:46.985Z,-9.20
2022-12-14T07:35:16.869Z,-9.10
2022-12-14T07:37:49.055Z,-9.10
2022-12-14T07:40:18.457Z,-9.10
2022-12-14T07:42:50.781Z,-9.00
2022-12-14T07:45:19.386Z,-9.00
2022-12-14T07:47:47.998Z,-8.90
2022-12-14T07:50:16.845Z,-8.90
2022-12-14T07:52:46.841Z,-8.80
2022-12-14T07:55:15.713Z,-8.80
2022-12-14T07:57:48.355Z,-8.70
2022-12-14T08:00:18.120Z,-8.70
2022-12-14T08:02:46.912Z,-8.70
2022-12-14T08:05:16.559Z,-8.60
2022-12-14T08:07:46.761Z,-8.60
2022-12-14T08:10:15.474Z,-8.60
2022-12-14T08:12:44.381Z,-8.50
2022-12-14T08:15:57.204Z,-8.40
2022-12-14T08:18:26.301Z,-8.40
2022-12-14T08:20:55.167Z,-8.40
2022-12-14T08:23:27.867Z,-8.30
2022-12-14T08:25:58.094Z,-8.20
2022-12-14T08:28:28.852Z,-8.10
2022-12-14T08:30:58.008Z,-8.10
2022-12-14T08:33:27.168Z,-7.90
2022-12-14T08:35:55.968Z,-7.80
2022-12-14T08:38:26.107Z,-7.80
2022-12-14T08:40:54.790Z,-7.70
2022-12-14T08:43:30.561Z,-7.70
2022-12-14T08:46:00.103Z,-7.60
2022-12-14T08:48:32.135Z,-7.50
2022-12-14T08:51:04.135Z,-7.50
2022-12-14T08:53:34.918Z,-7.40
2022-12-14T08:56:06.800Z,-7.10
2022-12-14T08:58:36.573Z,-6.60
2022-12-14T09:01:12.459Z,-6.00
2022-12-14T09:03:46.229Z,-5.30
2022-12-14T09:06:19.645Z,-4.80
2022-12-14T09:08:52.125Z,-4.30
2022-12-14T09:11:21.794Z,-3.90
2022-12-14T09:13:52.613Z,-3.60
2022-12-14T09:16:26.461Z,-3.70
2022-12-14T09:18:58.291Z,-4.10
2022-12-14T09:21:30.023Z,-4.60
2022-12-14T09:24:00.257Z,-5.00
2022-12-14T09:26:30.031Z,-5.20
2022-12-14T09:29:02.087Z,-5.50
2022-12-14T09:31:34.083Z,-5.60
2022-12-14T09:34:04.104Z,-5.70
2022-12-14T09:36:42.520Z,-5.90
2022-12-14T09:39:15.198Z,-6.00
2022-12-14T09:42:01.213Z,-6.00
2022-12-14T09:44:45.172Z,-6.00
2022-12-14T09:47:20.928Z,-6.00
2022-12-14T09:49:55.310Z,-5.90
2022-12-14T09:52:35.635Z,-5.80
2022-12-14T09:55:18.557Z,-5.70
2022-12-14T09:57:49.605Z,-5.70
2022-12-14T10:00:23.740Z,-5.60
2022-12-14T10:03:16.007Z,-5.60
2022-12-14T10:06:03.116Z,-5.50
2022-12-14T10:08:37.190Z,-5.50
2022-12-14T10:11:25.492Z,-5.40
2022-12-14T10:14:07.711Z,-5.40
2022-12-14T10:16:51.590Z,-5.30
2022-12-14T10:19:42.011Z,-5.20
2022-12-14T10:22:18.060Z,-5.40
2022-12-14T10:24:50.645Z,-5.10
2022-12-14T10:27:37.776Z,-5.00
2022-12-14T10:30:19.934Z,-4.90
2022-12-14T10:32:53.857Z,-4.80
2022-12-14T10:35:33.180Z,-4.80
2022-12-14T10:38:07.638Z,-4.70
2022-12-14T10:40:37.250Z,-4.70
2022-12-14T10:43:36.939Z,-4.60
2022-12-14T10:46:23.359Z,-4.50
2022-12-14T10:48:58.333Z,-4.40
2022-12-14T10:51:36.640Z,-4.30
2022-12-14T10:54:22.302Z,-4.30
2022-12-14T10:57:01.554Z,-4.40
2022-12-14T10:59:42.344Z,-4.30
2022-12-14T11:02:18.962Z,-4.40
2022-12-14T11:04:54.905Z,-4.30
2022-12-14T11:07:28.622Z,-4.20
2022-12-14T11:10:17.551Z,-4.10
2022-12-14T11:13:07.007Z,-4.00
2022-12-14T11:15:39.325Z,-3.90
2022-12-14T11:18:32.122Z,-3.90
2022-12-14T11:21:02.917Z,-3.90
2022-12-14T11:23:37.897Z,-3.90
2022-12-14T11:26:11.508Z,-3.90
2022-12-14T11:28:50.187Z,-3.90
2022-12-14T11:31:28.139Z,-3.80
2022-12-14T11:34:01.378Z,-3.70
2022-12-14T11:36:34.046Z,-3.70
2022-12-14T11:39:06.055Z,-3.60
2022-12-14T11:41:37.096Z,-3.60
2022-12-14T11:44:21.701Z,-3.50
2022-12-14T11:46:56.604Z,-3.60
2022-12-14T11:49:28.609Z,-3.40
2022-12-14T11:52:02.066Z,-3.50
2022-12-14T11:54:31.135Z,-3.40
2022-12-14T11:57:04.501Z,-3.40
2022-12-14T11:59:43.079Z,-3.40
2022-12-14T12:02:24.046Z,-3.40
2022-12-14T12:05:00.429Z,-3.40
2022-12-14T12:07:35.203Z,-3.40
2022-12-14T12:10:17.113Z,-3.40
2022-12-14T12:12:52.627Z,-3.50
2022-12-14T12:15:27.292Z,-3.40
2022-12-14T12:18:02.149Z,-3.30
2022-12-14T12:20:36.909Z,-3.40
2022-12-14T12:23:11.661Z,-3.40
2022-12-14T12:25:42.327Z,-3.30
2022-12-14T12:28:23.463Z,-3.30
2022-12-14T12:30:56.719Z,-3.30
2022-12-14T12:33:32.743Z,-3.30
2022-12-14T12:36:06.177Z,-3.30
2022-12-14T12:38:55.319Z,-3.30
2022-12-14T12:41:33.760Z,-3.30
2022-12-14T12:44:13.866Z,-3.30
2022-12-14T12:47:22.246Z,-3.20
2022-12-14T12:49:42.332Z,-3.10
2022-12-14T12:52:20.878Z,-3.10
2022-12-14T12:54:57.445Z,-3.20
2022-12-14T12:57:29.951Z,-3.20
2022-12-14T13:00:00.748Z,-3.20
2022-12-14T13:02:36.643Z,-3.20
2022-12-14T13:05:45.274Z,-3.30
2022-12-14T13:08:16.387Z,-3.30
2022-12-14T13:13:42.470Z,-3.40
2022-12-14T13:16:22.941Z,-3.40
2022-12-14T13:19:32.119Z,-3.30
2022-12-14T13:22:04.967Z,-3.40
2022-12-14T13:24:34.761Z,-3.40
2022-12-14T13:27:43.108Z,-3.50
2022-12-14T13:30:26.345Z,-3.60
2022-12-14T13:33:21.665Z,-3.70
2022-12-14T13:36:17.637Z,-3.80
2022-12-14T13:39:04.646Z,-3.70
2022-12-14T13:41:42.292Z,-3.70
2022-12-14T13:44:34.707Z,-3.80
2022-12-14T13:47:16.156Z,-3.80
2022-12-14T13:50:26.375Z,-3.90
2022-12-14T13:52:47.871Z,-3.90
2022-12-14T13:55:40.206Z,-3.90
2022-12-14T13:58:19.713Z,-4.00
2022-12-14T14:01:00.453Z,-4.00
2022-12-14T14:03:51.422Z,-4.10
2022-12-14T14:06:46.148Z,-4.30
2022-12-14T14:09:50.748Z,-4.30
2022-12-14T14:12:52.686Z,-4.40
2022-12-14T14:15:33.119Z,-4.50
2022-12-14T14:18:18.252Z,-4.60
2022-12-14T14:20:53.812Z,-4.70
2022-12-14T14:23:34.538Z,-4.70
2022-12-14T14:26:24.718Z,-4.90
2022-12-14T14:29:21.327Z,-4.90
2022-12-14T14:31:53.662Z,-5.00
2022-12-14T14:34:33.270Z,-5.00
2022-12-14T14:37:03.045Z,-5.00
2022-12-14T14:39:58.920Z,-5.00
2022-12-14T14:42:31.468Z,-5.10
2022-12-14T14:45:04.227Z,-5.20
2022-12-14T14:47:35.870Z,-5.30
2022-12-14T14:50:08.860Z,-5.30
2022-12-14T14:52:57.860Z,-5.50
2022-12-14T14:55:54.280Z,-5.50
2022-12-14T14:58:28.786Z,-5.60
2022-12-14T15:01:08.670Z,-5.70
2022-12-14T15:03:46.409Z,-5.60
2022-12-14T15:06:18.206Z,-5.60
2022-12-14T15:08:50.726Z,-5.60
2022-12-14T15:11:21.497Z,-5.70
2022-12-14T15:13:55.403Z,-5.70
2022-12-14T15:16:31.079Z,-5.80
2022-12-14T15:19:24.331Z,-5.90
2022-12-14T15:21:55.540Z,-5.90
2022-12-14T15:24:25.798Z,-5.90
2022-12-14T15:26:55.393Z,-6.00
2022-12-14T15:29:29.307Z,-6.00
2022-12-14T15:32:02.094Z,-6.10
2022-12-14T15:34:31.154Z,-6.10
2022-12-14T15:36:59.832Z,-6.10
2022-12-14T15:39:39.989Z,-6.10
2022-12-14T15:42:14.113Z,-6.20
2022-12-14T15:44:51.461Z,-6.20
2022-12-14T15:47:30.319Z,-6.20
2022-12-14T15:50:17.619Z,-6.20
2022-12-14T15:52:47.291Z,-6.30
2022-12-14T15:55:28.129Z,-6.30
2022-12-14T15:57:57.121Z,-6.30
2022-12-14T16:00:27.234Z,-6.30
2022-12-14T16:02:57.660Z,-6.30
2022-12-14T16:05:26.876Z,-6.20
2022-12-14T16:07:57.818Z,-6.20
2022-12-14T16:10:31.734Z,-6.20
2022-12-14T16:13:04.480Z,-6.10
2022-12-14T16:15:33.423Z,-6.10
2022-12-14T16:18:03.821Z,-6.00
2022-12-14T16:20:35.444Z,-6.00
2022-12-14T16:23:07.410Z,-5.90
2022-12-14T16:25:38.213Z,-5.90
2022-12-14T16:28:32.469Z,-5.90
2022-12-14T16:31:04.522Z,-5.90
2022-12-14T16:33:36.233Z,-5.80
2022-12-14T16:36:08.581Z,-5.90
2022-12-14T16:38:42.550Z,-6.00
2022-12-14T16:41:11.645Z,-5.80
2022-12-14T16:43:42.343Z,-5.70
2022-12-14T16:46:15.160Z,-5.70
2022-12-14T16:49:02.169Z,-5.70
2022-12-14T16:52:05.017Z,-5.70
2022-12-14T16:54:27.624Z,-5.60
2022-12-14T16:57:02.432Z,-5.60
2022-12-14T16:59:40.757Z,-5.60
2022-12-14T17:02:28.231Z,-5.60
2022-12-14T17:04:59.867Z,-5.50
2022-12-14T17:07:33.171Z,-5.50
2022-12-14T17:10:01.878Z,-5.50
2022-12-14T17:12:30.765Z,-5.50
2022-12-14T17:15:00.318Z,-5.50
2022-12-14T17:17:34.107Z,-5.50
2022-12-14T17:20:09.201Z,-5.50
2022-12-14T17:22:39.368Z,-5.40
2022-12-14T17:25:08.713Z,-5.50
2022-12-14T17:27:37.385Z,-5.40
2022-12-14T17:30:08.290Z,-5.40
2022-12-14T17:32:37.285Z,-5.40
2022-12-14T17:35:11.225Z,-5.50
2022-12-14T17:37:40.010Z,-5.50
2022-12-14T17:40:12.683Z,-5.40
2022-12-14T17:42:42.398Z,-5.40
2022-12-14T17:45:20.601Z,-5.40
2022-12-14T17:47:49.909Z,-5.40
2022-12-14T17:50:21.075Z,-5.30
2022-12-14T17:52:50.690Z,-5.30
2022-12-14T17:55:21.663Z,-5.20
2022-12-14T17:57:51.138Z,-5.20
2022-12-14T18:00:38.671Z,-5.10
2022-12-14T18:03:08.456Z,-5.10
2022-12-14T18:05:44.961Z,-5.10
2022-12-14T18:08:17.257Z,-5.10
2022-12-14T18:10:46.672Z,-5.00
2022-12-14T18:13:15.758Z,-5.00
2022-12-14T18:15:49.787Z,-5.00
2022-12-14T18:18:19.403Z,-5.00
2022-12-14T18:20:52.339Z,-4.90
2022-12-14T18:23:22.213Z,-4.80
2022-12-14T18:25:52.816Z,-4.90
2022-12-14T18:28:21.918Z,-4.90
2022-12-14T18:30:58.920Z,-4.90
2022-12-14T18:33:29.195Z,-4.90
2022-12-14T18:36:00.029Z,-4.80
2022-12-14T18:38:28.933Z,-4.80
2022-12-14T18:41:01.963Z,-4.80
2022-12-14T18:43:31.993Z,-4.80
2022-12-14T18:46:01.762Z,-4.80
2022-12-14T18:48:30.568Z,-4.70
2022-12-14T18:51:00.923Z,-4.60
2022-12-14T18:53:30.318Z,-4.70
2022-12-14T18:55:59.657Z,-4.60
2022-12-14T18:58:29.916Z,-4.60
2022-12-14T19:01:00.634Z,-4.60
2022-12-14T19:03:32.361Z,-4.50
2022-12-14T19:06:43.094Z,-4.50
2022-12-14T19:08:57.203Z,-4.50
2022-12-14T19:11:33.200Z,-4.40
2022-12-14T19:14:02.243Z,-4.40
2022-12-14T19:16:30.908Z,-4.40
2022-12-14T19:18:59.891Z,-4.30
2022-12-14T19:21:31.762Z,-4.20
2022-12-14T19:24:01.160Z,-4.30
2022-12-14T19:26:30.200Z,-4.20
2022-12-14T19:28:59.232Z,-4.20
2022-12-14T19:31:28.582Z,-4.10
2022-12-14T19:33:58.094Z,-4.10
2022-12-14T19:36:27.757Z,-4.10
2022-12-14T19:38:57.859Z,-4.00
2022-12-14T19:41:26.749Z,-4.00
2022-12-14T19:43:58.066Z,-4.00
2022-12-14T19:46:32.347Z,-4.00
2022-12-14T19:49:02.516Z,-3.90
2022-12-14T19:51:35.532Z,-3.90
2022-12-14T19:54:13.129Z,-3.80
2022-12-14T19:56:43.520Z,-3.90
2022-12-14T19:59:12.314Z,-3.90
2022-12-14T20:01:47.718Z,-3.80
2022-12-14T20:04:19.344Z,-3.80
2022-12-14T20:06:51.338Z,-3.80
2022-12-14T20:09:24.629Z,-3.70
2022-12-14T20:11:55.798Z,-3.80
2022-12-14T20:14:25.474Z,-3.70
2022-12-14T20:16:56.218Z,-3.70
2022-12-14T20:19:26.144Z,-3.70
2022-12-14T20:21:56.339Z,-3.70
2022-12-14T20:24:28.545Z,-3.70
2022-12-14T20:26:58.825Z,-3.70
2022-12-14T20:29:29.665Z,-3.70
2022-12-14T20:32:01.463Z,-3.80
2022-12-14T20:34:32.341Z,-3.80
2022-12-14T20:37:03.818Z,-3.70
2022-12-14T20:39:35.750Z,-3.70
2022-12-14T20:42:07.325Z,-3.70
2022-12-14T20:44:40.029Z,-3.70
2022-12-14T20:47:08.964Z,-3.70
2022-12-14T20:49:39.613Z,-3.70
2022-12-14T20:52:12.086Z,-3.70
2022-12-14T20:54:45.206Z,-3.70
2022-12-14T20:57:15.076Z,-3.60
2022-12-14T20:59:46.730Z,-3.50
2022-12-14T21:02:20.825Z,-3.60
2022-12-14T21:04:53.595Z,-3.60
2022-12-14T21:07:26.245Z,-3.50
2022-12-14T21:10:00.001Z,-3.60
2022-12-14T21:12:32.009Z,-3.50
2022-12-14T21:15:01.349Z,-3.50
2022-12-14T21:17:31.824Z,-3.50
2022-12-14T21:20:00.657Z,-3.50
2022-12-14T21:22:32.302Z,-3.50
2022-12-14T21:25:08.626Z,-3.40
2022-12-14T21:27:39.666Z,-3.40
2022-12-14T21:30:13.114Z,-3.40
2022-12-14T21:32:41.804Z,-3.40
2022-12-14T21:35:11.758Z,-3.50
2022-12-14T21:37:46.580Z,-3.50
2022-12-14T21:40:40.102Z,-3.40
2022-12-14T21:43:07.933Z,-3.40
2022-12-14T21:45:36.754Z,-3.40
2022-12-14T21:48:05.615Z,-3.40
2022-12-14T21:50:48.720Z,-3.40
2022-12-14T21:53:17.490Z,-3.40
2022-12-14T21:55:51.950Z,-3.30
2022-12-14T21:58:19.634Z,-3.40
2022-12-14T22:00:48.278Z,-3.40
2022-12-14T22:03:17.089Z,-3.30
2022-12-14T22:05:49.629Z,-3.20
2022-12-14T22:08:21.348Z,-3.30
2022-12-14T22:10:53.199Z,-3.30
2022-12-14T22:13:26.323Z,-3.30
2022-12-14T22:15:56.614Z,-3.30
2022-12-14T22:18:27.958Z,-3.20
2022-12-14T22:21:04.432Z,-3.30
2022-12-14T22:23:35.154Z,-3.20
2022-12-14T22:26:08.552Z,-3.30
2022-12-14T22:28:39.278Z,-3.20
2022-12-14T22:31:42.999Z,-3.20
2022-12-14T22:34:19.363Z,-3.20
2022-12-14T22:36:49.669Z,-3.30
2022-12-14T22:39:23.423Z,-3.20
2022-12-14T22:41:53.482Z,-3.20
2022-12-14T22:44:22.122Z,-3.10
2022-12-14T22:46:51.266Z,-3.20
2022-12-14T22:49:21.406Z,-3.20
2022-12-14T22:51:54.442Z,-3.20
2022-12-14T22:54:25.335Z,-3.10
2022-12-14T22:56:59.498Z,-3.10
2022-12-14T22:59:31.765Z,-3.10
2022-12-14T23:02:01.184Z,-3.10
2022-12-14T23:04:30.396Z,-3.10
2022-12-14T23:06:59.296Z,-3.00
2022-12-14T23:09:45.222Z,-3.00
2022-12-14T23:12:33.003Z,-3.10
2022-12-14T23:15:19.223Z,-3.10
2022-12-14T23:18:05.480Z,-3.20
2022-12-14T23:20:51.662Z,-3.20
2022-12-14T23:23:37.949Z,-3.30
2022-12-14T23:26:24.308Z,-3.20
2022-12-14T23:29:11.772Z,-3.20
2022-12-14T23:31:58.074Z,-3.20
2022-12-14T23:34:44.311Z,-3.20
2022-12-14T23:37:34.137Z,-3.20
2022-12-14T23:40:20.296Z,-3.20
2022-12-14T23:43:06.793Z,-3.20
2022-12-14T23:45:54.339Z,-3.20
2022-12-14T23:48:40.561Z,-3.20
2022-12-14T23:51:27.110Z,-3.20
2022-12-14T23:54:13.080Z,-3.20
2022-12-14T23:56:59.261Z,-3.20
2022-12-14T23:59:49.651Z,-3.20
